createdAt,value
2022-08-22T00:01:11.856Z,19.64
2022-08-22T00:02:49.712Z,22.06
2022-08-22T00:02:54.058Z,22.57
2022-08-22T00:04:02.357Z,19.64
2022-08-22T00:06:39.105Z,19.64
2022-08-22T00:09:18.051Z,19.49
2022-08-22T00:12:00.083Z,19.53
2022-08-22T00:15:31.489Z,19.62
2022-08-22T00:18:05.826Z,19.39
2022-08-22T00:20:49.156Z,19.14
2022-08-22T00:23:27.926Z,18.99
2022-08-22T00:26:10.478Z,19.04
2022-08-22T00:28:47.020Z,18.91
2022-08-22T00:31:33.394Z,18.88
2022-08-22T00:34:24.013Z,18.80
2022-08-22T00:37:09.720Z,18.87
2022-08-22T00:39:43.972Z,18.89
2022-08-22T00:42:31.680Z,18.78
2022-08-22T00:45:20.893Z,18.88
2022-08-22T00:48:14.634Z,18.94
2022-08-22T00:50:59.626Z,18.80
2022-08-22T00:53:26.006Z,18.75
2022-08-22T00:56:33.891Z,18.63
2022-08-22T00:59:24.204Z,18.77
2022-08-22T01:02:10.696Z,18.87
2022-08-22T01:05:10.199Z,18.88
2022-08-22T01:07:42.671Z,18.73
2022-08-22T01:10:43.201Z,18.74
2022-08-22T01:13:21.934Z,18.67
2022-08-22T01:15:53.157Z,18.60
2022-08-22T01:18:43.071Z,18.54
2022-08-22T01:21:33.430Z,18.63
2022-08-22T01:24:18.745Z,18.51
2022-08-22T01:27:10.655Z,18.36
2022-08-22T01:30:16.381Z,18.37
2022-08-22T01:32:56.819Z,18.58
2022-08-22T01:35:45.344Z,18.41
2022-08-22T01:38:33.518Z,18.50
2022-08-22T01:41:20.090Z,18.53
2022-08-22T01:43:59.903Z,18.26
2022-08-22T01:47:02.166Z,18.08
2022-08-22T01:49:44.208Z,17.96
2022-08-22T01:52:18.744Z,17.88
2022-08-22T01:55:11.282Z,17.72
2022-08-22T01:57:57.128Z,17.71
2022-08-22T02:00:35.270Z,17.48
2022-08-22T02:03:30.056Z,17.54
2022-08-22T02:06:07.589Z,17.79
2022-08-22T02:08:43.335Z,17.86
2022-08-22T02:11:30.094Z,17.86
2022-08-22T02:14:27.893Z,17.96
2022-08-22T02:17:08.753Z,17.96
2022-08-22T02:19:54.170Z,18.06
2022-08-22T02:22:32.876Z,17.99
2022-08-22T02:25:14.385Z,17.94
2022-08-22T02:27:57.396Z,17.88
2022-08-22T02:30:45.412Z,17.72
2022-08-22T02:33:38.019Z,17.58
2022-08-22T02:36:29.222Z,17.50
2022-08-22T02:39:08.158Z,17.48
2022-08-22T02:41:49.727Z,17.48
2022-08-22T02:44:20.436Z,17.65
2022-08-22T02:46:54.292Z,17.68
2022-08-22T02:49:35.705Z,17.64
2022-08-22T02:52:35.570Z,17.57
2022-08-22T02:55:06.445Z,17.47
2022-08-22T02:57:49.291Z,17.55
2022-08-22T03:00:32.616Z,17.47
2022-08-22T03:02:59.520Z,17.50
2022-08-22T03:05:30.171Z,17.64
2022-08-22T03:08:10.045Z,17.65
2022-08-22T03:10:45.853Z,17.62
2022-08-22T03:13:38.357Z,17.54
2022-08-22T03:16:13.376Z,17.50
2022-08-22T03:19:06.386Z,17.50
2022-08-22T03:21:44.945Z,17.53
2022-08-22T03:24:39.751Z,17.36
2022-08-22T03:27:31.386Z,17.27
2022-08-22T03:30:27.562Z,17.07
2022-08-22T03:32:54.478Z,17.00
2022-08-22T03:35:23.856Z,17.10
2022-08-22T03:37:56.526Z,17.09
2022-08-22T03:40:31.793Z,17.09
2022-08-22T03:43:56.646Z,17.00
2022-08-22T03:46:42.104Z,17.02
2022-08-22T03:49:20.636Z,17.02
2022-08-22T03:52:16.369Z,17.00
2022-08-22T03:54:58.126Z,17.09
2022-08-22T03:57:24.515Z,17.14
2022-08-22T04:00:12.930Z,17.21
2022-08-22T04:02:44.260Z,16.99
2022-08-22T04:05:55.046Z,17.00
2022-08-22T04:09:04.686Z,17.07
2022-08-22T04:11:37.077Z,16.99
2022-08-22T04:14:19.673Z,17.06
2022-08-22T04:17:15.681Z,17.19
2022-08-22T04:20:11.155Z,17.02
2022-08-22T04:23:01.794Z,16.98
2022-08-22T04:25:33.730Z,17.06
2022-08-22T04:29:01.959Z,17.17
2022-08-22T04:31:36.037Z,17.00
2022-08-22T04:34:31.894Z,17.07
2022-08-22T04:37:27.758Z,17.17
2022-08-22T04:40:23.597Z,17.36
2022-08-22T04:43:32.304Z,17.36
2022-08-22T04:46:24.033Z,17.36
2022-08-22T04:49:12.586Z,17.36
2022-08-22T04:51:47.096Z,17.53
2022-08-22T04:54:30.786Z,17.36
2022-08-22T04:57:00.287Z,17.41
2022-08-22T04:59:30.708Z,17.36
2022-08-22T05:02:06.691Z,17.30
2022-08-22T05:04:45.332Z,17.30
2022-08-22T05:07:22.032Z,17.41
2022-08-22T05:10:11.703Z,17.41
2022-08-22T05:13:04.124Z,17.61
2022-08-22T05:15:35.174Z,17.62
2022-08-22T05:18:09.376Z,17.65
2022-08-22T05:20:40.277Z,17.95
2022-08-22T05:23:17.545Z,17.94
2022-08-22T05:25:47.185Z,17.96
2022-08-22T05:28:29.460Z,18.02
2022-08-22T05:30:56.766Z,18.15
2022-08-22T05:33:39.207Z,18.20
2022-08-22T05:36:13.356Z,18.16
2022-08-22T05:38:54.330Z,18.16
2022-08-22T05:41:24.008Z,18.16
2022-08-22T05:43:52.542Z,18.27
2022-08-22T05:46:43.440Z,18.26
2022-08-22T05:49:19.115Z,18.44
2022-08-22T05:52:00.428Z,18.48
2022-08-22T05:54:34.429Z,18.39
2022-08-22T05:57:30.196Z,18.37
2022-08-22T06:00:12.837Z,18.36
2022-08-22T06:03:05.690Z,18.39
2022-08-22T06:05:37.338Z,18.54
2022-08-22T06:08:40.948Z,18.54
2022-08-22T06:11:15.611Z,18.77
2022-08-22T06:13:51.006Z,18.91
2022-08-22T06:16:31.136Z,18.63
2022-08-22T06:18:59.123Z,18.81
2022-08-22T06:21:39.514Z,19.15
2022-08-22T06:24:13.046Z,19.02
2022-08-22T06:26:48.251Z,19.35
2022-08-22T06:32:59.435Z,19.66
2022-08-22T06:35:29.730Z,19.64
2022-08-22T06:38:00.632Z,19.66
2022-08-22T06:40:29.359Z,19.74
2022-08-22T06:42:57.769Z,19.98
2022-08-22T06:45:32.298Z,20.05
2022-08-22T06:48:07.883Z,20.20
2022-08-22T06:50:38.422Z,20.21
2022-08-22T06:53:36.638Z,20.52
2022-08-22T06:56:07.265Z,20.61
2022-08-22T06:58:40.354Z,20.68
2022-08-22T07:01:14.701Z,20.66
2022-08-22T07:03:53.772Z,20.77
2022-08-22T07:06:34.476Z,20.87
2022-08-22T07:09:05.620Z,20.87
2022-08-22T07:11:38.505Z,20.83
2022-08-22T07:14:08.247Z,20.97
2022-08-22T07:16:42.304Z,20.93
2022-08-22T07:19:21.735Z,20.94
2022-08-22T07:21:48.322Z,21.10
2022-08-22T07:24:19.362Z,21.04
2022-08-22T07:27:16.734Z,21.23
2022-08-22T07:30:00.704Z,21.45
2022-08-22T07:32:42.062Z,21.72
2022-08-22T07:35:17.430Z,22.10
2022-08-22T07:37:48.028Z,22.25
2022-08-22T07:40:20.907Z,22.56
2022-08-22T07:43:01.656Z,22.91
2022-08-22T07:45:43.279Z,22.91
2022-08-22T07:48:25.983Z,23.01
2022-08-22T07:51:01.875Z,23.89
2022-08-22T07:53:44.792Z,23.74
2022-08-22T07:56:30.250Z,23.77
2022-08-22T07:59:12.713Z,24.11
2022-08-22T08:01:45.904Z,24.31
2022-08-22T08:04:17.230Z,25.55
2022-08-22T08:06:48.352Z,26.37
2022-08-22T08:09:16.953Z,25.18
2022-08-22T08:11:44.826Z,26.19
2022-08-22T08:14:15.338Z,25.73
2022-08-22T08:16:51.656Z,26.70
2022-08-22T08:19:19.677Z,26.36
2022-08-22T08:21:53.587Z,25.75
2022-08-22T08:24:25.857Z,27.58
2022-08-22T08:27:18.277Z,28.00
2022-08-22T08:29:56.418Z,29.25
2022-08-22T08:32:27.646Z,29.81
2022-08-22T08:34:54.596Z,29.03
2022-08-22T08:37:44.691Z,27.82
2022-08-22T08:40:31.352Z,29.91
2022-08-22T08:43:34.796Z,28.50
2022-08-22T08:46:07.489Z,29.43
2022-08-22T08:48:52.350Z,31.16
2022-08-22T08:51:52.281Z,31.29
2022-08-22T08:54:34.201Z,30.48
2022-08-22T08:57:14.848Z,30.76
2022-08-22T08:59:48.555Z,29.84
2022-08-22T09:02:53.009Z,29.88
2022-08-22T09:05:37.812Z,29.59
2022-08-22T09:08:33.246Z,31.44
2022-08-22T09:11:28.780Z,31.26
2022-08-22T09:14:12.346Z,30.90
2022-08-22T09:17:00.396Z,30.76
2022-08-22T09:19:29.633Z,29.19
2022-08-22T09:22:22.210Z,29.18
2022-08-22T09:25:07.265Z,29.23
2022-08-22T09:27:36.054Z,28.99
2022-08-22T09:30:11.515Z,29.98
2022-08-22T09:32:54.531Z,30.71
2022-08-22T09:35:34.677Z,31.17
2022-08-22T09:38:47.908Z,31.00
2022-08-22T09:41:23.121Z,32.15
2022-08-22T09:44:07.578Z,32.16
2022-08-22T09:47:14.554Z,32.84
2022-08-22T09:49:59.682Z,33.71
2022-08-22T09:52:57.950Z,30.78
2022-08-22T09:55:44.289Z,31.51
2022-08-22T09:58:25.730Z,31.44
2022-08-22T10:01:03.029Z,31.42
2022-08-22T10:03:51.405Z,33.14
2022-08-22T10:06:39.862Z,33.55
2022-08-22T10:09:15.599Z,32.77
2022-08-22T10:11:49.588Z,33.62
2022-08-22T10:14:33.752Z,33.91
2022-08-22T10:17:17.047Z,31.91
2022-08-22T10:20:02.593Z,30.24
2022-08-22T10:23:05.147Z,29.94
2022-08-22T10:25:44.719Z,31.04
2022-08-22T10:28:41.330Z,29.40
2022-08-22T10:31:58.641Z,31.95
2022-08-22T10:34:35.733Z,33.34
2022-08-22T10:37:10.701Z,34.61
2022-08-22T10:39:47.454Z,33.91
2022-08-22T10:42:28.677Z,32.18
2022-08-22T10:45:35.643Z,30.66
2022-08-22T10:48:08.608Z,29.67
2022-08-22T10:50:48.019Z,29.11
2022-08-22T10:53:38.630Z,29.83
2022-08-22T10:56:13.956Z,31.07
2022-08-22T10:58:58.070Z,32.63
2022-08-22T11:01:37.712Z,34.13
2022-08-22T11:04:29.409Z,35.98
2022-08-22T11:07:35.345Z,36.08
2022-08-22T11:10:09.124Z,34.64
2022-08-22T11:12:43.104Z,33.92
2022-08-22T11:15:34.699Z,33.42
2022-08-22T11:18:26.693Z,31.06
2022-08-22T11:21:02.489Z,28.79
2022-08-22T11:24:03.017Z,30.23
2022-08-22T11:26:46.639Z,30.01
2022-08-22T11:29:23.238Z,30.13
2022-08-22T11:32:06.104Z,29.78
2022-08-22T11:34:46.111Z,31.65
2022-08-22T11:37:24.747Z,31.50
2022-08-22T11:40:24.883Z,31.16
2022-08-22T11:43:06.725Z,30.82
2022-08-22T11:45:45.579Z,32.42
2022-08-22T11:48:23.485Z,33.68
2022-08-22T11:51:13.537Z,34.78
2022-08-22T11:53:49.416Z,35.03
2022-08-22T11:56:29.163Z,35.10
2022-08-22T11:59:10.921Z,33.61
2022-08-22T12:01:44.320Z,33.88
2022-08-22T12:04:20.046Z,30.38
2022-08-22T12:06:59.706Z,31.23
2022-08-22T12:09:56.068Z,32.46
2022-08-22T12:12:25.647Z,29.37
2022-08-22T12:15:00.144Z,29.93
2022-08-22T12:18:00.941Z,31.21
2022-08-22T12:20:49.248Z,31.78
2022-08-22T12:23:48.789Z,30.14
2022-08-22T12:26:30.160Z,31.55
2022-08-22T12:29:33.493Z,30.32
2022-08-22T12:32:22.820Z,31.17
2022-08-22T12:35:27.157Z,32.35
2022-08-22T12:38:01.394Z,33.71
2022-08-22T12:40:47.570Z,31.77
2022-08-22T12:43:46.545Z,30.97
2022-08-22T12:46:47.398Z,30.55
2022-08-22T12:49:44.934Z,30.72
2022-08-22T12:53:09.549Z,29.87
2022-08-22T12:55:51.691Z,29.70
2022-08-22T12:58:18.153Z,30.34
2022-08-22T13:00:47.267Z,30.08
2022-08-22T13:03:36.782Z,29.00
2022-08-22T13:06:07.651Z,28.70
2022-08-22T13:08:44.594Z,28.71
2022-08-22T13:11:22.364Z,28.43
2022-08-22T13:13:56.729Z,29.20
2022-08-22T13:16:26.122Z,29.19
2022-08-22T13:19:07.696Z,28.60
2022-08-22T13:21:43.273Z,29.05
2022-08-22T13:24:16.864Z,29.00
2022-08-22T13:26:54.887Z,28.71
2022-08-22T13:29:27.475Z,29.14
2022-08-22T13:32:07.578Z,28.24
2022-08-22T13:34:40.565Z,28.29
2022-08-22T13:37:17.890Z,28.70
2022-08-22T13:39:54.980Z,29.39
2022-08-22T13:42:30.093Z,29.72
2022-08-22T13:45:02.176Z,29.46
2022-08-22T13:47:32.317Z,29.32
2022-08-22T13:50:27.343Z,28.99
2022-08-22T13:53:07.182Z,28.81
2022-08-22T13:55:50.415Z,28.88
2022-08-22T13:58:25.061Z,28.96
2022-08-22T14:01:31.091Z,29.50
2022-08-22T14:04:08.386Z,30.02
2022-08-22T14:07:18.192Z,30.84
2022-08-22T14:10:02.763Z,30.04
2022-08-22T14:12:55.644Z,31.02
2022-08-22T14:15:32.197Z,31.57
2022-08-22T14:18:18.502Z,31.31
2022-08-22T14:20:46.702Z,30.56
2022-08-22T14:23:26.990Z,30.39
2022-08-22T14:25:54.568Z,30.55
2022-08-22T14:28:28.721Z,30.80
2022-08-22T14:31:00.995Z,30.58
2022-08-22T14:33:36.221Z,30.34
2022-08-22T14:36:18.932Z,30.13
2022-08-22T14:38:52.202Z,30.28
2022-08-22T14:41:55.753Z,30.34
2022-08-22T14:44:36.110Z,29.59
2022-08-22T14:47:54.344Z,29.80
2022-08-22T14:50:00.087Z,30.08
2022-08-22T14:52:34.433Z,29.70
2022-08-22T14:55:09.952Z,30.11
2022-08-22T14:57:42.998Z,30.51
2022-08-22T15:00:12.593Z,30.82
2022-08-22T15:02:40.782Z,30.82
2022-08-22T15:05:45.196Z,30.52
2022-08-22T15:08:24.267Z,30.48
2022-08-22T15:11:18.170Z,30.66
2022-08-22T15:14:02.782Z,30.84
2022-08-22T15:16:43.456Z,30.90
2022-08-22T15:19:24.772Z,30.41
2022-08-22T15:21:51.953Z,30.13
2022-08-22T15:24:19.148Z,29.90
2022-08-22T15:26:55.434Z,30.08
2022-08-22T15:29:33.043Z,30.31
2022-08-22T15:32:02.280Z,30.13
2022-08-22T15:34:45.815Z,30.27
2022-08-22T15:37:18.122Z,30.97
2022-08-22T15:40:11.872Z,30.63
2022-08-22T15:42:47.317Z,30.83
2022-08-22T15:45:33.684Z,30.51
2022-08-22T15:48:04.434Z,30.00
2022-08-22T15:50:38.935Z,29.95
2022-08-22T15:53:06.751Z,29.88
2022-08-22T15:55:34.335Z,29.78
2022-08-22T15:58:20.362Z,29.53
2022-08-22T16:01:18.775Z,29.20
2022-08-22T16:04:02.159Z,29.30
2022-08-22T16:06:43.577Z,29.36
2022-08-22T16:09:29.879Z,29.33
2022-08-22T16:11:58.540Z,29.23
2022-08-22T16:14:49.923Z,29.16
2022-08-22T16:17:28.715Z,29.16
2022-08-22T16:20:07.496Z,29.11
2022-08-22T16:22:58.204Z,29.09
2022-08-22T16:25:47.984Z,28.84
2022-08-22T16:28:57.459Z,28.79
2022-08-22T16:31:30.537Z,28.68
2022-08-22T16:34:18.277Z,28.70
2022-08-22T16:36:47.237Z,28.64
2022-08-22T16:39:13.627Z,28.58
2022-08-22T16:41:43.665Z,28.70
2022-08-22T16:44:38.418Z,28.65
2022-08-22T16:47:41.645Z,28.57
2022-08-22T16:50:23.314Z,28.54
2022-08-22T16:52:49.686Z,28.52
2022-08-22T16:55:31.299Z,28.57
2022-08-22T16:58:06.129Z,28.43
2022-08-22T17:00:36.245Z,28.48
2022-08-22T17:03:18.786Z,28.45
2022-08-22T17:05:48.156Z,28.50
2022-08-22T17:08:39.546Z,28.39
2022-08-22T17:11:18.106Z,28.36
2022-08-22T17:13:53.583Z,28.41
2022-08-22T17:16:54.039Z,28.47
2022-08-22T17:19:47.445Z,28.48
2022-08-22T17:22:20.093Z,28.51
2022-08-22T17:25:08.014Z,28.54
2022-08-22T17:27:43.750Z,28.61
2022-08-22T17:30:22.144Z,28.60
2022-08-22T17:33:07.151Z,28.58
2022-08-22T17:35:51.301Z,28.50
2022-08-22T17:38:55.573Z,28.37
2022-08-22T17:41:40.345Z,28.27
2022-08-22T17:44:21.982Z,28.06
2022-08-22T17:47:01.411Z,27.96
2022-08-22T17:49:33.875Z,27.75
2022-08-22T17:52:17.368Z,27.49
2022-08-22T17:57:46.751Z,27.35
2022-08-22T18:00:28.373Z,27.32
2022-08-22T18:03:19.162Z,27.15
2022-08-22T18:05:57.865Z,27.23
2022-08-22T18:11:42.996Z,27.21
2022-08-22T18:14:28.278Z,27.18
2022-08-22T18:16:57.095Z,27.07
2022-08-22T18:19:23.449Z,26.93
2022-08-22T18:21:53.222Z,26.94
2022-08-22T18:24:32.641Z,26.88
2022-08-22T18:27:30.056Z,26.82
2022-08-22T18:30:10.910Z,26.67
2022-08-22T18:33:00.467Z,26.57
2022-08-22T18:35:41.305Z,26.53
2022-08-22T18:38:20.500Z,26.47
2022-08-22T18:40:53.637Z,26.39
2022-08-22T18:43:27.463Z,26.45
2022-08-22T18:46:02.841Z,26.35
2022-08-22T18:48:36.863Z,26.42
2022-08-22T18:51:24.397Z,26.40
2022-08-22T18:54:01.425Z,26.35
2022-08-22T18:56:40.358Z,26.29
2022-08-22T18:59:25.352Z,26.26
2022-08-22T19:02:34.427Z,26.14
2022-08-22T19:05:27.404Z,26.14
2022-08-22T19:07:59.934Z,26.16
2022-08-22T19:11:05.752Z,26.09
2022-08-22T19:13:57.059Z,25.97
2022-08-22T19:16:26.295Z,25.85
2022-08-22T19:18:59.056Z,25.77
2022-08-22T19:21:53.189Z,25.63
2022-08-22T19:24:19.536Z,25.49
2022-08-22T19:27:17.992Z,25.47
2022-08-22T19:29:44.459Z,25.36
2022-08-22T19:32:32.340Z,25.26
2022-08-22T19:35:21.575Z,25.16
2022-08-22T19:38:02.620Z,25.13
2022-08-22T19:40:44.489Z,25.08
2022-08-22T19:43:40.438Z,25.09
2022-08-22T19:46:11.910Z,24.89
2022-08-22T19:48:48.394Z,24.95
2022-08-22T19:51:26.606Z,24.83
2022-08-22T19:54:01.997Z,24.93
2022-08-22T19:57:02.849Z,24.65
2022-08-22T19:59:50.801Z,24.64
2022-08-22T20:02:35.054Z,24.67
2022-08-22T20:05:07.660Z,24.64
2022-08-22T20:08:06.507Z,24.60
2022-08-22T20:10:48.014Z,24.55
2022-08-22T20:13:24.362Z,24.41
2022-08-22T20:16:06.031Z,24.40
2022-08-22T20:19:07.641Z,24.35
2022-08-22T20:21:44.023Z,24.40
2022-08-22T20:24:25.016Z,24.38
2022-08-22T20:27:13.256Z,24.37
2022-08-22T20:29:46.337Z,24.41
2022-08-22T20:32:16.460Z,24.47
2022-08-22T20:34:45.246Z,24.49
2022-08-22T20:37:32.292Z,24.42
2022-08-22T20:40:33.504Z,24.42
2022-08-22T20:43:22.763Z,24.37
2022-08-22T20:46:27.723Z,24.47
2022-08-22T20:48:56.108Z,24.40
2022-08-22T20:51:25.338Z,24.45
2022-08-22T20:53:54.751Z,24.45
2022-08-22T20:56:32.966Z,24.40
2022-08-22T20:59:01.274Z,24.34
2022-08-22T21:01:28.673Z,24.28
2022-08-22T21:03:55.868Z,24.24
2022-08-22T21:06:34.831Z,24.09
2022-08-22T21:09:39.545Z,24.03
2022-08-22T21:12:09.201Z,23.94
2022-08-22T21:14:44.265Z,23.84
2022-08-22T21:17:34.234Z,23.89
2022-08-22T21:20:22.653Z,23.92
2022-08-22T21:22:49.618Z,23.94
2022-08-22T21:25:16.201Z,23.93
2022-08-22T21:27:47.660Z,23.92
2022-08-22T21:30:22.804Z,23.72
2022-08-22T21:32:55.163Z,23.83
2022-08-22T21:35:25.163Z,23.84
2022-08-22T21:37:51.963Z,23.87
2022-08-22T21:40:20.136Z,23.86
2022-08-22T21:43:09.688Z,23.89
2022-08-22T21:45:38.880Z,23.93
2022-08-22T21:48:30.138Z,23.90
2022-08-22T21:50:56.619Z,23.80
2022-08-22T21:53:28.124Z,23.63
2022-08-22T21:56:16.477Z,23.47
2022-08-22T21:58:42.894Z,23.45
2022-08-22T22:01:32.712Z,23.50
2022-08-22T22:03:59.773Z,23.49
2022-08-22T22:06:26.666Z,23.46
2022-08-22T22:08:53.345Z,23.34
2022-08-22T22:11:19.863Z,23.29
2022-08-22T22:13:46.621Z,23.21
2022-08-22T22:16:13.285Z,23.22
2022-08-22T22:18:40.593Z,23.18
2022-08-22T22:21:07.739Z,23.25
2022-08-22T22:23:34.198Z,23.08
2022-08-22T22:26:04.004Z,22.90
2022-08-22T22:28:40.404Z,22.92
2022-08-22T22:31:07.597Z,22.87
2022-08-22T22:33:37.079Z,22.71
2022-08-22T22:36:18.321Z,22.76
2022-08-22T22:38:45.256Z,22.84
2022-08-22T22:41:12.397Z,22.74
2022-08-22T22:43:38.925Z,22.61
2022-08-22T22:46:05.520Z,22.51
2022-08-22T22:48:33.151Z,22.50
2022-08-22T22:51:05.702Z,22.51
2022-08-22T22:53:38.495Z,22.48
2022-08-22T22:56:10.013Z,22.50
2022-08-22T22:58:37.451Z,22.54
2022-08-22T23:01:15.555Z,22.26
2022-08-22T23:03:42.977Z,22.30
2022-08-22T23:06:18.135Z,22.30
2022-08-22T23:08:44.940Z,22.25
2022-08-22T23:11:17.516Z,22.13
2022-08-22T23:13:44.285Z,21.93
2022-08-22T23:16:21.173Z,21.95
2022-08-22T23:18:48.037Z,21.85
2022-08-22T23:21:26.695Z,21.75
2022-08-22T23:23:58.852Z,21.60
2022-08-22T23:26:26.071Z,21.52
2022-08-22T23:28:52.785Z,21.37
2022-08-22T23:31:32.987Z,21.21
2022-08-22T23:34:09.372Z,21.40
2022-08-22T23:36:36.655Z,21.30
2022-08-22T23:39:05.664Z,21.31
2022-08-22T23:41:32.269Z,21.13
2022-08-22T23:43:58.711Z,21.09
2022-08-22T23:46:26.512Z,21.20
2022-08-22T23:48:53.498Z,21.00
2022-08-22T23:51:22.960Z,20.86
2022-08-22T23:53:50.269Z,20.87
2022-08-22T23:56:22.574Z,20.86
